sensor_id;sensor_type;location;lat;lon;timestamp;P1;durP1;ratioP1;P2;durP2;ratioP2
68523;SDS011;55524;51.380;13.372;2024-01-16T00:02:10;3.33;;;0.98;;
68523;SDS011;55524;51.380;13.372;2024-01-16T00:04:36;3.78;;;1.25;;
68523;SDS011;55524;51.380;13.372;2024-01-16T00:07:06;7.28;;;1.40;;
68523;SDS011;55524;51.380;13.372;2024-01-16T00:09:33;2.58;;;1.10;;
68523;SDS011;55524;51.380;13.372;2024-01-16T00:12:00;3.65;;;1.38;;
68523;SDS011;55524;51.380;13.372;2024-01-16T00:14:29;4.72;;;1.30;;
68523;SDS011;55524;51.380;13.372;2024-01-16T00:16:59;5.40;;;1.38;;
68523;SDS011;55524;51.380;13.372;2024-01-16T00:19:25;5.60;;;1.00;;
68523;SDS011;55524;51.380;13.372;2024-01-16T00:22:01;7.65;;;1.35;;
68523;SDS011;55524;51.380;13.372;2024-01-16T00:24:29;2.10;;;1.08;;
68523;SDS011;55524;51.380;13.372;2024-01-16T00:26:55;2.63;;;1.33;;
68523;SDS011;55524;51.380;13.372;2024-01-16T00:29:22;5.55;;;1.40;;
68523;SDS011;55524;51.380;13.372;2024-01-16T00:31:48;3.78;;;1.25;;
68523;SDS011;55524;51.380;13.372;2024-01-16T00:34:15;2.92;;;1.13;;
68523;SDS011;55524;51.380;13.372;2024-01-16T00:36:41;4.65;;;1.40;;
68523;SDS011;55524;51.380;13.372;2024-01-16T00:39:07;5.80;;;1.48;;
68523;SDS011;55524;51.380;13.372;2024-01-16T00:41:54;5.20;;;1.35;;
68523;SDS011;55524;51.380;13.372;2024-01-16T00:44:20;7.32;;;1.50;;
68523;SDS011;55524;51.380;13.372;2024-01-16T00:46:47;5.20;;;1.40;;
68523;SDS011;55524;51.380;13.372;2024-01-16T00:49:13;4.65;;;1.45;;
68523;SDS011;55524;51.380;13.372;2024-01-16T00:51:39;6.25;;;1.50;;
68523;SDS011;55524;51.380;13.372;2024-01-16T00:54:08;6.35;;;1.73;;
68523;SDS011;55524;51.380;13.372;2024-01-16T00:56:35;2.70;;;1.60;;
68523;SDS011;55524;51.380;13.372;2024-01-16T00:59:02;3.63;;;1.73;;
68523;SDS011;55524;51.380;13.372;2024-01-16T01:01:31;2.60;;;1.50;;
68523;SDS011;55524;51.380;13.372;2024-01-16T01:03:58;3.75;;;1.95;;
68523;SDS011;55524;51.380;13.372;2024-01-16T01:06:24;2.33;;;2.00;;
68523;SDS011;55524;51.380;13.372;2024-01-16T01:08:50;3.92;;;1.83;;
68523;SDS011;55524;51.380;13.372;2024-01-16T01:11:16;4.78;;;2.10;;
68523;SDS011;55524;51.380;13.372;2024-01-16T01:13:43;4.18;;;2.15;;
68523;SDS011;55524;51.380;13.372;2024-01-16T01:16:09;4.07;;;1.85;;
68523;SDS011;55524;51.380;13.372;2024-01-16T01:18:35;3.45;;;2.08;;
68523;SDS011;55524;51.380;13.372;2024-01-16T01:21:02;2.60;;;2.00;;
68523;SDS011;55524;51.380;13.372;2024-01-16T01:23:28;2.95;;;2.40;;
68523;SDS011;55524;51.380;13.372;2024-01-16T01:25:54;3.63;;;2.20;;
68523;SDS011;55524;51.380;13.372;2024-01-16T01:28:21;8.18;;;2.30;;
68523;SDS011;55524;51.380;13.372;2024-01-16T01:30:56;4.35;;;2.08;;
68523;SDS011;55524;51.380;13.372;2024-01-16T01:33:22;4.53;;;2.40;;
68523;SDS011;55524;51.380;13.372;2024-01-16T01:35:48;3.17;;;2.33;;
68523;SDS011;55524;51.380;13.372;2024-01-16T01:38:15;7.88;;;2.17;;
68523;SDS011;55524;51.380;13.372;2024-01-16T01:40:41;4.05;;;2.20;;
68523;SDS011;55524;51.380;13.372;2024-01-16T01:43:19;2.80;;;2.00;;
68523;SDS011;55524;51.380;13.372;2024-01-16T01:45:47;6.20;;;2.50;;
68523;SDS011;55524;51.380;13.372;2024-01-16T01:48:32;5.85;;;2.33;;
68523;SDS011;55524;51.380;13.372;2024-01-16T01:51:28;5.85;;;2.08;;
68523;SDS011;55524;51.380;13.372;2024-01-16T01:53:54;2.75;;;2.42;;
68523;SDS011;55524;51.380;13.372;2024-01-16T01:56:23;3.72;;;2.30;;
68523;SDS011;55524;51.380;13.372;2024-01-16T01:58:52;4.65;;;2.42;;
68523;SDS011;55524;51.380;13.372;2024-01-16T02:01:21;3.63;;;2.20;;
68523;SDS011;55524;51.380;13.372;2024-01-16T02:03:49;5.40;;;2.25;;
68523;SDS011;55524;51.380;13.372;2024-01-16T02:06:17;2.72;;;2.40;;
68523;SDS011;55524;51.380;13.372;2024-01-16T02:08:44;6.07;;;2.55;;
68523;SDS011;55524;51.380;13.372;2024-01-16T02:11:11;5.38;;;2.67;;
68523;SDS011;55524;51.380;13.372;2024-01-16T02:13:37;3.78;;;2.40;;
68523;SDS011;55524;51.380;13.372;2024-01-16T02:16:03;3.33;;;2.38;;
68523;SDS011;55524;51.380;13.372;2024-01-16T02:18:31;3.58;;;2.20;;
68523;SDS011;55524;51.380;13.372;2024-01-16T02:20:58;4.82;;;1.85;;
68523;SDS011;55524;51.380;13.372;2024-01-16T02:23:29;6.38;;;2.40;;
68523;SDS011;55524;51.380;13.372;2024-01-16T02:25:56;6.18;;;1.90;;
68523;SDS011;55524;51.380;13.372;2024-01-16T02:28:22;7.32;;;2.33;;
68523;SDS011;55524;51.380;13.372;2024-01-16T02:30:49;4.75;;;2.40;;
68523;SDS011;55524;51.380;13.372;2024-01-16T02:33:15;5.78;;;2.25;;
68523;SDS011;55524;51.380;13.372;2024-01-16T02:35:42;6.07;;;2.17;;
68523;SDS011;55524;51.380;13.372;2024-01-16T02:38:08;4.63;;;2.15;;
68523;SDS011;55524;51.380;13.372;2024-01-16T02:40:35;3.25;;;2.00;;
68523;SDS011;55524;51.380;13.372;2024-01-16T02:43:01;3.45;;;1.80;;
68523;SDS011;55524;51.380;13.372;2024-01-16T02:45:27;2.25;;;1.80;;
68523;SDS011;55524;51.380;13.372;2024-01-16T02:47:53;3.08;;;1.60;;
68523;SDS011;55524;51.380;13.372;2024-01-16T02:50:20;2.78;;;1.70;;
68523;SDS011;55524;51.380;13.372;2024-01-16T02:52:46;3.70;;;1.80;;
68523;SDS011;55524;51.380;13.372;2024-01-16T02:55:16;5.15;;;2.10;;
68523;SDS011;55524;51.380;13.372;2024-01-16T02:57:42;4.53;;;1.52;;
68523;SDS011;55524;51.380;13.372;2024-01-16T03:00:09;7.50;;;1.90;;
68523;SDS011;55524;51.380;13.372;2024-01-16T03:02:39;2.30;;;1.52;;
68523;SDS011;55524;51.380;13.372;2024-01-16T03:05:05;3.13;;;1.60;;
68523;SDS011;55524;51.380;13.372;2024-01-16T03:07:32;4.15;;;1.80;;
68523;SDS011;55524;51.380;13.372;2024-01-16T03:09:59;4.88;;;1.50;;
68523;SDS011;55524;51.380;13.372;2024-01-16T03:12:26;2.53;;;1.75;;
68523;SDS011;55524;51.380;13.372;2024-01-16T03:14:52;4.70;;;1.50;;
68523;SDS011;55524;51.380;13.372;2024-01-16T03:17:20;2.25;;;1.40;;
68523;SDS011;55524;51.380;13.372;2024-01-16T03:19:46;3.58;;;1.35;;
68523;SDS011;55524;51.380;13.372;2024-01-16T03:22:12;2.80;;;1.30;;
68523;SDS011;55524;51.380;13.372;2024-01-16T03:24:39;3.00;;;1.25;;
68523;SDS011;55524;51.380;13.372;2024-01-16T03:27:05;3.72;;;1.30;;
68523;SDS011;55524;51.380;13.372;2024-01-16T03:29:32;1.17;;;0.80;;
68523;SDS011;55524;51.380;13.372;2024-01-16T03:31:59;3.42;;;1.10;;
68523;SDS011;55524;51.380;13.372;2024-01-16T03:34:26;1.80;;;1.40;;
68523;SDS011;55524;51.380;13.372;2024-01-16T03:36:52;3.00;;;1.13;;
68523;SDS011;55524;51.380;13.372;2024-01-16T03:39:19;4.70;;;1.23;;
68523;SDS011;55524;51.380;13.372;2024-01-16T03:41:45;5.10;;;1.25;;
68523;SDS011;55524;51.380;13.372;2024-01-16T03:44:12;1.20;;;1.10;;
68523;SDS011;55524;51.380;13.372;2024-01-16T03:46:38;2.45;;;1.08;;
68523;SDS011;55524;51.380;13.372;2024-01-16T03:49:04;5.63;;;1.30;;
68523;SDS011;55524;51.380;13.372;2024-01-16T03:51:30;3.50;;;1.30;;
68523;SDS011;55524;51.380;13.372;2024-01-16T03:53:57;1.33;;;1.10;;
68523;SDS011;55524;51.380;13.372;2024-01-16T03:56:23;3.83;;;1.20;;
68523;SDS011;55524;51.380;13.372;2024-01-16T03:58:50;3.72;;;1.20;;
68523;SDS011;55524;51.380;13.372;2024-01-16T04:01:16;2.63;;;1.10;;
68523;SDS011;55524;51.380;13.372;2024-01-16T04:03:42;6.28;;;1.00;;
68523;SDS011;55524;51.380;13.372;2024-01-16T04:06:17;3.65;;;1.10;;
68523;SDS011;55524;51.380;13.372;2024-01-16T04:08:44;3.90;;;1.30;;
68523;SDS011;55524;51.380;13.372;2024-01-16T04:11:11;1.70;;;0.90;;
68523;SDS011;55524;51.380;13.372;2024-01-16T04:13:38;3.75;;;1.17;;
68523;SDS011;55524;51.380;13.372;2024-01-16T04:16:05;2.22;;;1.30;;
68523;SDS011;55524;51.380;13.372;2024-01-16T04:18:39;1.00;;;0.90;;
68523;SDS011;55524;51.380;13.372;2024-01-16T04:21:07;3.05;;;1.08;;
68523;SDS011;55524;51.380;13.372;2024-01-16T04:23:33;3.25;;;1.23;;
68523;SDS011;55524;51.380;13.372;2024-01-16T04:26:00;2.65;;;1.17;;
68523;SDS011;55524;51.380;13.372;2024-01-16T04:28:26;1.80;;;1.02;;
68523;SDS011;55524;51.380;13.372;2024-01-16T04:34:18;2.17;;;1.40;;
68523;SDS011;55524;51.380;13.372;2024-01-16T04:36:44;2.45;;;1.05;;
68523;SDS011;55524;51.380;13.372;2024-01-16T04:39:31;2.95;;;1.42;;
68523;SDS011;55524;51.380;13.372;2024-01-16T04:41:57;3.05;;;1.25;;
68523;SDS011;55524;51.380;13.372;2024-01-16T04:44:24;4.47;;;1.30;;
68523;SDS011;55524;51.380;13.372;2024-01-16T04:46:50;2.17;;;1.40;;
68523;SDS011;55524;51.380;13.372;2024-01-16T04:49:17;1.45;;;1.17;;
68523;SDS011;55524;51.380;13.372;2024-01-16T04:51:44;4.25;;;1.48;;
68523;SDS011;55524;51.380;13.372;2024-01-16T04:54:11;2.75;;;1.30;;
68523;SDS011;55524;51.380;13.372;2024-01-16T04:56:37;1.20;;;1.10;;
68523;SDS011;55524;51.380;13.372;2024-01-16T04:59:03;7.28;;;1.30;;
68523;SDS011;55524;51.380;13.372;2024-01-16T05:01:30;3.67;;;1.20;;
68523;SDS011;55524;51.380;13.372;2024-01-16T05:03:57;2.10;;;1.08;;
68523;SDS011;55524;51.380;13.372;2024-01-16T05:06:23;3.40;;;1.10;;
68523;SDS011;55524;51.380;13.372;2024-01-16T05:08:49;4.47;;;1.38;;
68523;SDS011;55524;51.380;13.372;2024-01-16T05:11:16;1.55;;;1.42;;
68523;SDS011;55524;51.380;13.372;2024-01-16T05:13:43;1.02;;;0.98;;
68523;SDS011;55524;51.380;13.372;2024-01-16T05:16:09;2.15;;;1.23;;
68523;SDS011;55524;51.380;13.372;2024-01-16T05:18:36;2.28;;;1.00;;
68523;SDS011;55524;51.380;13.372;2024-01-16T05:21:02;1.90;;;1.00;;
68523;SDS011;55524;51.380;13.372;2024-01-16T05:24:00;2.88;;;1.23;;
68523;SDS011;55524;51.380;13.372;2024-01-16T05:26:27;1.38;;;1.10;;
68523;SDS011;55524;51.380;13.372;2024-01-16T05:29:03;1.10;;;1.00;;
68523;SDS011;55524;51.380;13.372;2024-01-16T05:31:41;4.07;;;1.13;;
68523;SDS011;55524;51.380;13.372;2024-01-16T05:34:08;1.83;;;1.10;;
68523;SDS011;55524;51.380;13.372;2024-01-16T05:36:35;2.17;;;0.90;;
68523;SDS011;55524;51.380;13.372;2024-01-16T05:39:04;3.17;;;1.35;;
68523;SDS011;55524;51.380;13.372;2024-01-16T05:41:34;4.82;;;1.30;;
68523;SDS011;55524;51.380;13.372;2024-01-16T05:44:01;2.30;;;1.20;;
68523;SDS011;55524;51.380;13.372;2024-01-16T05:46:33;4.88;;;1.63;;
68523;SDS011;55524;51.380;13.372;2024-01-16T05:48:59;2.42;;;1.50;;
68523;SDS011;55524;51.380;13.372;2024-01-16T05:51:29;3.95;;;1.60;;
68523;SDS011;55524;51.380;13.372;2024-01-16T05:57:21;5.07;;;1.55;;
68523;SDS011;55524;51.380;13.372;2024-01-16T05:59:47;1.83;;;1.40;;
68523;SDS011;55524;51.380;13.372;2024-01-16T06:02:13;2.60;;;1.52;;
68523;SDS011;55524;51.380;13.372;2024-01-16T06:04:40;5.97;;;1.52;;
68523;SDS011;55524;51.380;13.372;2024-01-16T06:07:06;3.60;;;1.35;;
68523;SDS011;55524;51.380;13.372;2024-01-16T06:09:33;5.35;;;1.50;;
68523;SDS011;55524;51.380;13.372;2024-01-16T06:14:30;1.40;;;1.20;;
68523;SDS011;55524;51.380;13.372;2024-01-16T06:16:56;3.92;;;1.30;;
68523;SDS011;55524;51.380;13.372;2024-01-16T06:19:23;6.75;;;1.80;;
68523;SDS011;55524;51.380;13.372;2024-01-16T06:21:49;1.60;;;1.40;;
68523;SDS011;55524;51.380;13.372;2024-01-16T06:24:15;6.25;;;1.92;;
68523;SDS011;55524;51.380;13.372;2024-01-16T06:26:51;15.30;;;2.72;;
68523;SDS011;55524;51.380;13.372;2024-01-16T06:29:17;24.45;;;5.70;;
68523;SDS011;55524;51.380;13.372;2024-01-16T06:31:43;19.75;;;6.32;;
68523;SDS011;55524;51.380;13.372;2024-01-16T06:34:10;10.00;;;3.75;;
68523;SDS011;55524;51.380;13.372;2024-01-16T06:36:36;26.77;;;8.60;;
68523;SDS011;55524;51.380;13.372;2024-01-16T06:39:02;24.77;;;7.82;;
68523;SDS011;55524;51.380;13.372;2024-01-16T06:41:29;31.02;;;10.98;;
68523;SDS011;55524;51.380;13.372;2024-01-16T06:43:58;11.65;;;3.72;;
68523;SDS011;55524;51.380;13.372;2024-01-16T06:46:27;28.63;;;7.55;;
68523;SDS011;55524;51.380;13.372;2024-01-16T06:49:00;6.40;;;2.28;;
68523;SDS011;55524;51.380;13.372;2024-01-16T06:51:27;12.90;;;3.92;;
68523;SDS011;55524;51.380;13.372;2024-01-16T06:53:53;4.20;;;1.73;;
68523;SDS011;55524;51.380;13.372;2024-01-16T06:56:20;3.70;;;2.22;;
68523;SDS011;55524;51.380;13.372;2024-01-16T06:58:46;3.70;;;2.10;;
68523;SDS011;55524;51.380;13.372;2024-01-16T07:01:13;2.90;;;2.10;;
68523;SDS011;55524;51.380;13.372;2024-01-16T07:03:39;3.63;;;1.92;;
68523;SDS011;55524;51.380;13.372;2024-01-16T07:06:05;3.53;;;2.10;;
68523;SDS011;55524;51.380;13.372;2024-01-16T07:08:31;4.35;;;2.08;;
68523;SDS011;55524;51.380;13.372;2024-01-16T07:10:58;3.97;;;2.20;;
68523;SDS011;55524;51.380;13.372;2024-01-16T07:13:36;4.10;;;2.00;;
68523;SDS011;55524;51.380;13.372;2024-01-16T07:19:08;4.22;;;2.10;;
68523;SDS011;55524;51.380;13.372;2024-01-16T07:21:35;5.80;;;2.05;;
68523;SDS011;55524;51.380;13.372;2024-01-16T07:24:01;4.38;;;2.13;;
68523;SDS011;55524;51.380;13.372;2024-01-16T07:26:28;2.42;;;1.95;;
68523;SDS011;55524;51.380;13.372;2024-01-16T07:29:03;2.35;;;2.00;;
68523;SDS011;55524;51.380;13.372;2024-01-16T07:31:29;6.15;;;2.00;;
68523;SDS011;55524;51.380;13.372;2024-01-16T07:33:56;4.10;;;1.60;;
68523;SDS011;55524;51.380;13.372;2024-01-16T07:36:22;6.10;;;1.38;;
68523;SDS011;55524;51.380;13.372;2024-01-16T07:38:48;4.35;;;1.58;;
68523;SDS011;55524;51.380;13.372;2024-01-16T07:41:14;7.18;;;1.48;;
68523;SDS011;55524;51.380;13.372;2024-01-16T07:43:41;2.20;;;1.42;;
68523;SDS011;55524;51.380;13.372;2024-01-16T07:46:07;2.65;;;1.35;;
68523;SDS011;55524;51.380;13.372;2024-01-16T07:48:33;4.35;;;1.77;;
68523;SDS011;55524;51.380;13.372;2024-01-16T07:51:00;3.42;;;1.80;;
68523;SDS011;55524;51.380;13.372;2024-01-16T07:53:29;4.35;;;1.85;;
68523;SDS011;55524;51.380;13.372;2024-01-16T07:55:55;2.30;;;1.58;;
68523;SDS011;55524;51.380;13.372;2024-01-16T07:58:21;2.78;;;1.63;;
68523;SDS011;55524;51.380;13.372;2024-01-16T08:00:48;3.13;;;1.83;;
68523;SDS011;55524;51.380;13.372;2024-01-16T08:03:14;6.25;;;1.90;;
68523;SDS011;55524;51.380;13.372;2024-01-16T08:05:41;6.15;;;1.70;;
68523;SDS011;55524;51.380;13.372;2024-01-16T08:08:08;5.93;;;1.70;;
68523;SDS011;55524;51.380;13.372;2024-01-16T08:10:35;4.47;;;1.65;;
68523;SDS011;55524;51.380;13.372;2024-01-16T08:13:01;5.70;;;1.90;;
68523;SDS011;55524;51.380;13.372;2024-01-16T08:15:28;6.20;;;2.30;;
68523;SDS011;55524;51.380;13.372;2024-01-16T08:17:54;2.72;;;1.70;;
68523;SDS011;55524;51.380;13.372;2024-01-16T08:20:21;6.90;;;2.03;;
68523;SDS011;55524;51.380;13.372;2024-01-16T08:23:07;5.25;;;1.77;;
68523;SDS011;55524;51.380;13.372;2024-01-16T08:25:34;2.78;;;1.83;;
68523;SDS011;55524;51.380;13.372;2024-01-16T08:28:01;6.90;;;1.45;;
68523;SDS011;55524;51.380;13.372;2024-01-16T08:30:28;5.40;;;1.65;;
68523;SDS011;55524;51.380;13.372;2024-01-16T08:32:54;8.05;;;2.45;;
68523;SDS011;55524;51.380;13.372;2024-01-16T08:35:41;5.68;;;1.92;;
68523;SDS011;55524;51.380;13.372;2024-01-16T08:38:31;5.75;;;1.83;;
68523;SDS011;55524;51.380;13.372;2024-01-16T08:40:57;3.40;;;1.80;;
68523;SDS011;55524;51.380;13.372;2024-01-16T08:43:44;4.53;;;1.80;;
68523;SDS011;55524;51.380;13.372;2024-01-16T08:46:10;5.20;;;2.25;;
68523;SDS011;55524;51.380;13.372;2024-01-16T08:48:57;5.78;;;4.47;;
68523;SDS011;55524;51.380;13.372;2024-01-16T08:51:23;6.55;;;4.78;;
68523;SDS011;55524;51.380;13.372;2024-01-16T08:53:58;2.80;;;1.85;;
68523;SDS011;55524;51.380;13.372;2024-01-16T08:56:47;6.32;;;2.20;;
68523;SDS011;55524;51.380;13.372;2024-01-16T08:59:14;3.05;;;2.10;;
68523;SDS011;55524;51.380;13.372;2024-01-16T09:01:41;7.35;;;2.40;;
68523;SDS011;55524;51.380;13.372;2024-01-16T09:04:07;6.10;;;2.70;;
68523;SDS011;55524;51.380;13.372;2024-01-16T09:06:36;9.90;;;2.45;;
68523;SDS011;55524;51.380;13.372;2024-01-16T09:09:03;4.35;;;2.53;;
68523;SDS011;55524;51.380;13.372;2024-01-16T09:11:47;5.72;;;2.20;;
68523;SDS011;55524;51.380;13.372;2024-01-16T09:14:14;6.03;;;2.08;;
68523;SDS011;55524;51.380;13.372;2024-01-16T09:16:40;5.30;;;2.13;;
68523;SDS011;55524;51.380;13.372;2024-01-16T09:19:07;15.70;;;4.10;;
68523;SDS011;55524;51.380;13.372;2024-01-16T09:21:54;29.67;;;8.23;;
68523;SDS011;55524;51.380;13.372;2024-01-16T09:24:31;5.78;;;2.90;;
68523;SDS011;55524;51.380;13.372;2024-01-16T09:26:59;4.22;;;2.20;;
68523;SDS011;55524;51.380;13.372;2024-01-16T09:29:26;4.95;;;2.30;;
68523;SDS011;55524;51.380;13.372;2024-01-16T09:31:52;3.42;;;1.90;;
68523;SDS011;55524;51.380;13.372;2024-01-16T09:34:19;5.07;;;2.25;;
68523;SDS011;55524;51.380;13.372;2024-01-16T09:36:45;7.68;;;2.30;;
68523;SDS011;55524;51.380;13.372;2024-01-16T09:39:15;7.78;;;2.35;;
68523;SDS011;55524;51.380;13.372;2024-01-16T09:41:45;5.18;;;2.17;;
68523;SDS011;55524;51.380;13.372;2024-01-16T09:44:14;6.78;;;2.20;;
68523;SDS011;55524;51.380;13.372;2024-01-16T09:47:10;5.35;;;1.90;;
68523;SDS011;55524;51.380;13.372;2024-01-16T09:49:37;39.85;;;4.70;;
68523;SDS011;55524;51.380;13.372;2024-01-16T09:52:04;4.55;;;2.08;;
68523;SDS011;55524;51.380;13.372;2024-01-16T09:54:31;8.68;;;2.30;;
68523;SDS011;55524;51.380;13.372;2024-01-16T09:57:06;6.13;;;2.17;;
68523;SDS011;55524;51.380;13.372;2024-01-16T09:59:35;4.18;;;1.95;;
68523;SDS011;55524;51.380;13.372;2024-01-16T10:02:06;9.93;;;3.50;;
68523;SDS011;55524;51.380;13.372;2024-01-16T10:04:35;19.50;;;5.07;;
68523;SDS011;55524;51.380;13.372;2024-01-16T10:07:02;24.45;;;6.18;;
68523;SDS011;55524;51.380;13.372;2024-01-16T10:09:31;12.85;;;3.60;;
68523;SDS011;55524;51.380;13.372;2024-01-16T10:12:07;5.15;;;2.20;;
68523;SDS011;55524;51.380;13.372;2024-01-16T10:14:39;4.00;;;3.45;;
68523;SDS011;55524;51.380;13.372;2024-01-16T10:17:08;6.03;;;3.30;;
68523;SDS011;55524;51.380;13.372;2024-01-16T10:19:49;8.27;;;3.15;;
68523;SDS011;55524;51.380;13.372;2024-01-16T10:22:29;4.25;;;2.60;;
68523;SDS011;55524;51.380;13.372;2024-01-16T10:27:36;7.97;;;2.10;;
68523;SDS011;55524;51.380;13.372;2024-01-16T10:30:23;5.60;;;2.10;;
68523;SDS011;55524;51.380;13.372;2024-01-16T10:32:51;3.55;;;2.10;;
68523;SDS011;55524;51.380;13.372;2024-01-16T10:35:18;4.43;;;1.95;;
68523;SDS011;55524;51.380;13.372;2024-01-16T10:37:46;4.38;;;1.77;;
68523;SDS011;55524;51.380;13.372;2024-01-16T10:40:20;5.65;;;1.90;;
68523;SDS011;55524;51.380;13.372;2024-01-16T10:43:05;4.57;;;1.92;;
68523;SDS011;55524;51.380;13.372;2024-01-16T10:45:32;3.25;;;2.00;;
68523;SDS011;55524;51.380;13.372;2024-01-16T10:48:02;5.70;;;2.22;;
68523;SDS011;55524;51.380;13.372;2024-01-16T10:50:33;8.02;;;2.08;;
68523;SDS011;55524;51.380;13.372;2024-01-16T10:53:04;4.20;;;2.33;;
68523;SDS011;55524;51.380;13.372;2024-01-16T10:58:07;3.13;;;1.60;;
68523;SDS011;55524;51.380;13.372;2024-01-16T11:00:38;4.90;;;1.95;;
68523;SDS011;55524;51.380;13.372;2024-01-16T11:03:11;6.65;;;2.30;;
68523;SDS011;55524;51.380;13.372;2024-01-16T11:06:06;7.70;;;2.25;;
68523;SDS011;55524;51.380;13.372;2024-01-16T11:08:34;6.05;;;2.00;;
68523;SDS011;55524;51.380;13.372;2024-01-16T11:11:02;5.32;;;1.88;;
68523;SDS011;55524;51.380;13.372;2024-01-16T11:13:31;5.18;;;2.10;;
68523;SDS011;55524;51.380;13.372;2024-01-16T11:16:00;9.60;;;3.20;;
68523;SDS011;55524;51.380;13.372;2024-01-16T11:18:33;8.15;;;2.08;;
68523;SDS011;55524;51.380;13.372;2024-01-16T11:21:03;4.20;;;2.38;;
68523;SDS011;55524;51.380;13.372;2024-01-16T11:23:37;7.60;;;2.38;;
68523;SDS011;55524;51.380;13.372;2024-01-16T11:28:49;3.28;;;2.05;;
68523;SDS011;55524;51.380;13.372;2024-01-16T11:31:27;8.05;;;2.30;;
68523;SDS011;55524;51.380;13.372;2024-01-16T11:33:53;3.00;;;2.40;;
68523;SDS011;55524;51.380;13.372;2024-01-16T11:39:11;4.88;;;2.15;;
68523;SDS011;55524;51.380;13.372;2024-01-16T11:41:59;4.45;;;1.95;;
68523;SDS011;55524;51.380;13.372;2024-01-16T11:47:28;4.80;;;2.00;;
68523;SDS011;55524;51.380;13.372;2024-01-16T11:50:08;8.95;;;2.20;;
68523;SDS011;55524;51.380;13.372;2024-01-16T11:52:43;7.20;;;2.30;;
68523;SDS011;55524;51.380;13.372;2024-01-16T11:55:29;4.00;;;1.80;;
68523;SDS011;55524;51.380;13.372;2024-01-16T12:00:52;7.30;;;1.90;;
68523;SDS011;55524;51.380;13.372;2024-01-16T12:03:22;5.70;;;1.83;;
68523;SDS011;55524;51.380;13.372;2024-01-16T12:05:58;5.78;;;1.85;;
68523;SDS011;55524;51.380;13.372;2024-01-16T12:08:25;4.93;;;1.90;;
68523;SDS011;55524;51.380;13.372;2024-01-16T12:10:52;6.65;;;1.95;;
68523;SDS011;55524;51.380;13.372;2024-01-16T12:13:18;2.90;;;1.67;;
68523;SDS011;55524;51.380;13.372;2024-01-16T12:15:45;3.92;;;1.90;;
68523;SDS011;55524;51.380;13.372;2024-01-16T12:18:17;5.03;;;2.00;;
68523;SDS011;55524;51.380;13.372;2024-01-16T12:20:43;2.60;;;1.73;;
68523;SDS011;55524;51.380;13.372;2024-01-16T12:23:21;6.30;;;1.70;;
68523;SDS011;55524;51.380;13.372;2024-01-16T12:25:51;3.38;;;1.70;;
68523;SDS011;55524;51.380;13.372;2024-01-16T12:28:21;5.15;;;1.75;;
68523;SDS011;55524;51.380;13.372;2024-01-16T12:30:50;3.03;;;1.67;;
68523;SDS011;55524;51.380;13.372;2024-01-16T12:33:21;7.22;;;1.98;;
68523;SDS011;55524;51.380;13.372;2024-01-16T12:35:48;3.55;;;1.70;;
68523;SDS011;55524;51.380;13.372;2024-01-16T12:38:26;4.28;;;2.03;;
68523;SDS011;55524;51.380;13.372;2024-01-16T12:40:52;3.08;;;1.75;;
68523;SDS011;55524;51.380;13.372;2024-01-16T12:43:18;2.90;;;1.65;;
68523;SDS011;55524;51.380;13.372;2024-01-16T12:45:45;5.18;;;1.90;;
68523;SDS011;55524;51.380;13.372;2024-01-16T12:48:11;5.30;;;2.05;;
68523;SDS011;55524;51.380;13.372;2024-01-16T12:50:38;2.97;;;1.88;;
68523;SDS011;55524;51.380;13.372;2024-01-16T12:53:08;5.60;;;1.88;;
68523;SDS011;55524;51.380;13.372;2024-01-16T12:55:39;6.65;;;1.98;;
68523;SDS011;55524;51.380;13.372;2024-01-16T13:01:29;3.60;;;2.17;;
68523;SDS011;55524;51.380;13.372;2024-01-16T13:03:57;3.70;;;1.80;;
68523;SDS011;55524;51.380;13.372;2024-01-16T13:09:03;6.03;;;2.20;;
68523;SDS011;55524;51.380;13.372;2024-01-16T13:11:54;2.88;;;1.92;;
68523;SDS011;55524;51.380;13.372;2024-01-16T13:14:29;4.20;;;2.08;;
68523;SDS011;55524;51.380;13.372;2024-01-16T13:16:56;6.85;;;1.80;;
68523;SDS011;55524;51.380;13.372;2024-01-16T13:19:22;4.03;;;1.83;;
68523;SDS011;55524;51.380;13.372;2024-01-16T13:21:49;4.57;;;2.05;;
68523;SDS011;55524;51.380;13.372;2024-01-16T13:24:15;4.53;;;1.92;;
68523;SDS011;55524;51.380;13.372;2024-01-16T13:26:48;5.55;;;1.98;;
68523;SDS011;55524;51.380;13.372;2024-01-16T13:29:15;9.52;;;2.38;;
68523;SDS011;55524;51.380;13.372;2024-01-16T13:31:41;3.88;;;1.80;;
68523;SDS011;55524;51.380;13.372;2024-01-16T13:34:08;5.63;;;2.30;;
68523;SDS011;55524;51.380;13.372;2024-01-16T13:36:34;6.65;;;1.95;;
68523;SDS011;55524;51.380;13.372;2024-01-16T13:39:01;5.53;;;2.20;;
68523;SDS011;55524;51.380;13.372;2024-01-16T13:41:28;2.28;;;2.08;;
68523;SDS011;55524;51.380;13.372;2024-01-16T13:43:54;4.57;;;2.15;;
68523;SDS011;55524;51.380;13.372;2024-01-16T13:46:21;6.55;;;2.13;;
68523;SDS011;55524;51.380;13.372;2024-01-16T13:48:50;3.10;;;2.13;;
68523;SDS011;55524;51.380;13.372;2024-01-16T13:51:17;8.48;;;3.03;;
68523;SDS011;55524;51.380;13.372;2024-01-16T13:53:43;5.57;;;2.33;;
68523;SDS011;55524;51.380;13.372;2024-01-16T13:56:09;5.20;;;2.30;;
68523;SDS011;55524;51.380;13.372;2024-01-16T13:58:36;4.82;;;2.33;;
68523;SDS011;55524;51.380;13.372;2024-01-16T14:01:02;5.82;;;2.20;;
68523;SDS011;55524;51.380;13.372;2024-01-16T14:03:29;2.88;;;2.20;;
68523;SDS011;55524;51.380;13.372;2024-01-16T14:05:55;5.53;;;2.65;;
68523;SDS011;55524;51.380;13.372;2024-01-16T14:08:24;5.32;;;2.45;;
68523;SDS011;55524;51.380;13.372;2024-01-16T14:10:51;6.78;;;2.35;;
68523;SDS011;55524;51.380;13.372;2024-01-16T14:13:17;6.13;;;2.50;;
68523;SDS011;55524;51.380;13.372;2024-01-16T14:15:44;5.78;;;2.60;;
68523;SDS011;55524;51.380;13.372;2024-01-16T14:18:10;5.40;;;2.20;;
68523;SDS011;55524;51.380;13.372;2024-01-16T14:20:36;3.92;;;2.05;;
68523;SDS011;55524;51.380;13.372;2024-01-16T14:23:03;4.25;;;2.35;;
68523;SDS011;55524;51.380;13.372;2024-01-16T14:25:29;5.75;;;2.58;;
68523;SDS011;55524;51.380;13.372;2024-01-16T14:30:34;6.28;;;2.60;;
68523;SDS011;55524;51.380;13.372;2024-01-16T14:33:01;6.13;;;2.67;;
68523;SDS011;55524;51.380;13.372;2024-01-16T14:35:28;4.28;;;2.58;;
68523;SDS011;55524;51.380;13.372;2024-01-16T14:37:54;11.23;;;2.70;;
68523;SDS011;55524;51.380;13.372;2024-01-16T14:40:20;6.13;;;2.65;;
68523;SDS011;55524;51.380;13.372;2024-01-16T14:42:50;5.30;;;2.70;;
68523;SDS011;55524;51.380;13.372;2024-01-16T14:48:18;6.97;;;2.67;;
68523;SDS011;55524;51.380;13.372;2024-01-16T14:51:08;4.18;;;2.65;;
68523;SDS011;55524;51.380;13.372;2024-01-16T14:53:39;4.47;;;2.90;;
68523;SDS011;55524;51.380;13.372;2024-01-16T14:56:10;9.95;;;2.95;;
68523;SDS011;55524;51.380;13.372;2024-01-16T14:58:58;6.13;;;2.85;;
68523;SDS011;55524;51.380;13.372;2024-01-16T15:01:31;6.85;;;2.80;;
68523;SDS011;55524;51.380;13.372;2024-01-16T15:04:19;4.57;;;2.83;;
68523;SDS011;55524;51.380;13.372;2024-01-16T15:07:07;6.57;;;2.70;;
68523;SDS011;55524;51.380;13.372;2024-01-16T15:09:42;6.95;;;3.25;;
68523;SDS011;55524;51.380;13.372;2024-01-16T15:12:20;6.85;;;2.55;;
68523;SDS011;55524;51.380;13.372;2024-01-16T15:14:59;10.10;;;3.00;;
68523;SDS011;55524;51.380;13.372;2024-01-16T15:17:29;14.50;;;3.03;;
68523;SDS011;55524;51.380;13.372;2024-01-16T15:19:58;8.07;;;2.95;;
68523;SDS011;55524;51.380;13.372;2024-01-16T15:22:24;6.32;;;2.72;;
68523;SDS011;55524;51.380;13.372;2024-01-16T15:27:51;5.07;;;3.22;;
68523;SDS011;55524;51.380;13.372;2024-01-16T15:30:40;5.25;;;3.20;;